Time,TemperatureF,DewpointF,PressureIn,WindDirection,WindDirectionDegrees,WindSpeedMPH,WindSpeedGustMPH,Humidity,HourlyPrecipIn,Conditions,Clouds,dailyrainin,SoftwareType,DateUTC
2013-08-04 00:00:00,71.5,69.7,29.88,West,267,0.0,0.0,94,0.00,,,0.00,VWS V14.01,2013-08-04 04:00:00,
2013-08-04 00:01:00,71.5,69.7,29.88,West,267,0.0,0.0,94,0.00,,,0.00,VWS V14.01,2013-08-04 04:01:00,
2013-08-04 00:03:00,71.5,69.7,29.88,West,267,0.0,0.0,94,0.00,,,0.00,VWS V14.01,2013-08-04 04:03:00,
2013-08-04 00:04:00,71.4,69.6,29.88,West,267,0.0,0.0,94,0.00,,,0.00,VWS V14.01,2013-08-04 04:04:00,
2013-08-04 00:09:00,71.3,69.5,29.88,West,267,0.0,0.0,94,0.00,,,0.00,VWS V14.01,2013-08-04 04:09:00,
2013-08-04 00:14:00,71.3,69.5,29.88,West,267,0.0,0.0,94,0.00,,,0.00,VWS V14.01,2013-08-04 04:14:00,
2013-08-04 00:19:00,71.1,69.6,29.89,West,267,0.0,0.0,95,0.00,,,0.00,VWS V14.01,2013-08-04 04:19:00,
2013-08-04 00:24:00,71.0,69.5,29.88,West,267,0.0,0.0,95,0.00,,,0.00,VWS V14.01,2013-08-04 04:24:00,
2013-08-04 00:30:00,70.8,69.3,29.88,West,267,0.0,0.0,95,0.00,,,0.00,VWS V14.01,2013-08-04 04:30:00,
2013-08-04 00:35:00,70.6,69.1,29.88,West,267,0.0,0.0,95,0.00,,,0.00,VWS V14.01,2013-08-04 04:35:00,
2013-08-04 00:40:00,70.6,69.1,29.88,West,267,0.0,0.0,95,0.00,,,0.00,VWS V14.01,2013-08-04 04:40:00,
2013-08-04 00:45:00,70.4,68.9,29.88,West,267,0.0,0.0,95,0.00,,,0.00,VWS V14.01,2013-08-04 04:45:00,
2013-08-04 00:50:00,70.3,69.1,29.88,West,267,0.0,0.0,96,0.00,,,0.00,VWS V14.01,2013-08-04 04:50:00,
2013-08-04 00:55:00,70.3,69.1,29.88,West,267,0.0,0.0,96,0.00,,,0.00,VWS V14.01,2013-08-04 04:55:00,
2013-08-04 01:00:00,70.3,69.1,29.88,West,267,0.0,0.0,96,0.00,,,0.00,VWS V14.01,2013-08-04 05:00:00,
2013-08-04 01:05:00,70.2,69.0,29.88,West,267,0.0,0.0,96,0.00,,,0.00,VWS V14.01,2013-08-04 05:05:00,
2013-08-04 01:10:00,70.0,68.8,29.88,West,267,0.0,0.0,96,0.00,,,0.00,VWS V14.01,2013-08-04 05:10:00,
2013-08-04 01:15:00,70.0,68.8,29.88,West,267,0.0,0.0,96,0.00,,,0.00,VWS V14.01,2013-08-04 05:15:00,
2013-08-04 01:20:00,69.9,68.7,29.89,West,267,0.0,0.0,96,0.00,,,0.00,VWS V14.01,2013-08-04 05:20:00,
2013-08-04 01:25:00,69.8,68.6,29.88,West,267,0.0,0.0,96,0.00,,,0.00,VWS V14.01,2013-08-04 05:25:00,
2013-08-04 01:30:00,69.7,68.5,29.88,West,267,0.0,0.0,96,0.00,,,0.00,VWS V14.01,2013-08-04 05:30:00,
2013-08-04 01:35:00,69.5,68.3,29.89,West,267,0.0,0.0,96,0.00,,,0.00,VWS V14.01,2013-08-04 05:35:00,
2013-08-04 01:40:00,69.5,68.6,29.88,West,267,0.0,0.0,97,0.00,,,0.00,VWS V14.01,2013-08-04 05:40:00,
2013-08-04 01:45:00,69.4,68.5,29.89,West,267,0.0,0.0,97,0.00,,,0.00,VWS V14.01,2013-08-04 05:45:00,
2013-08-04 01:50:00,69.4,68.5,29.88,West,267,0.0,0.0,97,0.00,,,0.00,VWS V14.01,2013-08-04 05:50:00,
2013-08-04 01:55:00,69.3,68.4,29.88,West,267,0.0,0.0,97,0.00,,,0.00,VWS V14.01,2013-08-04 05:55:00,
2013-08-04 02:01:00,69.2,68.3,29.88,West,267,0.0,0.0,97,0.00,,,0.00,VWS V14.01,2013-08-04 06:01:00,
2013-08-04 02:06:00,69.1,68.2,29.88,West,267,0.0,0.0,97,0.00,,,0.00,VWS V14.01,2013-08-04 06:06:00,
2013-08-04 02:11:00,69.1,68.2,29.88,West,267,0.0,0.0,97,0.00,,,0.00,VWS V14.01,2013-08-04 06:11:00,
2013-08-04 02:16:00,69.1,68.2,29.88,West,267,0.0,0.0,97,0.00,,,0.00,VWS V14.01,2013-08-04 06:16:00,
2013-08-04 02:21:00,69.0,68.1,29.89,West,267,0.0,0.0,97,0.00,,,0.00,VWS V14.01,2013-08-04 06:21:00,
2013-08-04 02:26:00,69.0,68.1,29.89,West,267,0.0,0.0,97,0.00,,,0.00,VWS V14.01,2013-08-04 06:26:00,
2013-08-04 02:31:00,69.0,68.4,29.89,West,267,0.0,0.0,98,0.00,,,0.00,VWS V14.01,2013-08-04 06:31:00,
2013-08-04 02:36:00,69.1,68.5,29.89,West,267,0.0,0.0,98,0.00,,,0.00,VWS V14.01,2013-08-04 06:36:00,
2013-08-04 02:41:00,69.2,68.6,29.88,West,267,0.0,0.0,98,0.00,,,0.00,VWS V14.01,2013-08-04 06:41:00,
2013-08-04 02:46:00,69.2,68.6,29.89,West,267,1.0,1.0,98,0.00,,,0.00,VWS V14.01,2013-08-04 06:46:00,
2013-08-04 02:51:00,69.2,68.6,29.89,West,267,0.0,0.0,98,0.00,,,0.00,VWS V14.01,2013-08-04 06:51:00,
2013-08-04 02:56:00,69.3,68.7,29.89,West,267,0.0,0.0,98,0.00,,,0.00,VWS V14.01,2013-08-04 06:56:00,
2013-08-04 03:02:00,69.2,68.6,29.89,West,267,0.0,0.0,98,0.00,,,0.00,VWS V14.01,2013-08-04 07:02:00,
2013-08-04 03:07:00,69.2,68.6,29.89,West,267,0.0,1.0,98,0.00,,,0.00,VWS V14.01,2013-08-04 07:07:00,
2013-08-04 03:12:00,69.1,68.5,29.89,West,267,0.0,0.0,98,0.00,,,0.00,VWS V14.01,2013-08-04 07:12:00,
2013-08-04 03:17:00,69.0,68.4,29.89,West,267,0.0,1.0,98,0.00,,,0.00,VWS V14.01,2013-08-04 07:17:00,
2013-08-04 03:23:00,68.9,68.3,29.89,West,267,0.0,0.0,98,0.00,,,0.00,VWS V14.01,2013-08-04 07:23:00,
2013-08-04 03:28:00,68.7,67.8,29.89,West,267,0.0,0.0,97,0.00,,,0.00,VWS V14.01,2013-08-04 07:28:00,
2013-08-04 03:32:00,68.5,67.6,29.89,West,267,0.0,0.0,97,0.00,,,0.00,VWS V14.01,2013-08-04 07:32:00,
2013-08-04 03:38:00,68.3,67.4,29.89,West,269,2.0,2.0,97,0.00,,,0.00,VWS V14.01,2013-08-04 07:38:00,
2013-08-04 03:43:00,68.1,67.2,29.90,WNW,286,4.0,6.0,97,0.00,,,0.00,VWS V14.01,2013-08-04 07:43:00,
2013-08-04 03:48:00,68.0,66.8,29.90,WNW,287,0.0,2.0,96,0.00,,,0.00,VWS V14.01,2013-08-04 07:48:00,
2013-08-04 03:53:00,67.9,66.7,29.90,WNW,289,0.0,0.0,96,0.00,,,0.00,VWS V14.01,2013-08-04 07:53:00,
2013-08-04 03:58:00,67.7,66.5,29.90,WNW,288,0.0,0.0,96,0.00,,,0.00,VWS V14.01,2013-08-04 07:58:00,
2013-08-04 04:03:00,67.6,66.4,29.90,WNW,289,0.0,0.0,96,0.00,,,0.00,VWS V14.01,2013-08-04 08:03:00,
2013-08-04 04:08:00,67.5,66.0,29.90,WNW,290,0.0,0.0,95,0.00,,,0.00,VWS V14.01,2013-08-04 08:08:00,
2013-08-04 04:13:00,67.4,65.9,29.90,WNW,290,0.0,0.0,95,0.00,,,0.00,VWS V14.01,2013-08-04 08:13:00,
2013-08-04 04:18:00,67.2,65.7,29.90,WNW,290,0.0,0.0,95,0.00,,,0.00,VWS V14.01,2013-08-04 08:18:00,
2013-08-04 04:23:00,67.0,65.5,29.90,WNW,290,0.0,0.0,95,0.00,,,0.00,VWS V14.01,2013-08-04 08:23:00,
2013-08-04 04:28:00,66.8,65.3,29.90,WNW,290,0.0,1.0,95,0.00,,,0.00,VWS V14.01,2013-08-04 08:28:00,
2013-08-04 04:33:00,66.6,65.1,29.90,WNW,290,0.0,0.0,95,0.00,,,0.00,VWS V14.01,2013-08-04 08:33:00,
2013-08-04 04:38:00,66.5,65.0,29.90,WNW,290,0.0,0.0,95,0.00,,,0.00,VWS V14.01,2013-08-04 08:38:00,
2013-08-04 04:43:00,66.3,64.8,29.90,WNW,290,0.0,0.0,95,0.00,,,0.00,VWS V14.01,2013-08-04 08:43:00,
2013-08-04 04:48:00,66.1,64.3,29.90,WNW,290,0.0,0.0,94,0.00,,,0.00,VWS V14.01,2013-08-04 08:48:00,
2013-08-04 04:53:00,66.0,64.2,29.90,WNW,290,0.0,0.0,94,0.00,,,0.00,VWS V14.01,2013-08-04 08:53:00,
2013-08-04 04:59:00,65.9,63.8,29.91,WNW,290,0.0,0.0,93,0.00,,,0.00,VWS V14.01,2013-08-04 08:59:00,
2013-08-04 05:04:00,65.7,63.6,29.91,WNW,290,0.0,0.0,93,0.00,,,0.00,VWS V14.01,2013-08-04 09:04:00,
2013-08-04 05:09:00,65.6,63.5,29.92,WNW,290,0.0,0.0,93,0.00,,,0.00,VWS V14.01,2013-08-04 09:09:00,
2013-08-04 05:14:00,65.5,63.4,29.92,WNW,290,0.0,0.0,93,0.00,,,0.00,VWS V14.01,2013-08-04 09:14:00,
2013-08-04 05:19:00,65.4,63.3,29.92,WNW,290,0.0,0.0,93,0.00,,,0.00,VWS V14.01,2013-08-04 09:19:00,
2013-08-04 05:24:00,65.3,63.2,29.91,WNW,290,0.0,0.0,93,0.00,,,0.00,VWS V14.01,2013-08-04 09:24:00,
2013-08-04 05:29:00,65.3,63.2,29.91,WNW,290,0.0,0.0,93,0.00,,,0.00,VWS V14.01,2013-08-04 09:29:00,
2013-08-04 05:34:00,65.2,62.8,29.91,WNW,290,0.0,0.0,92,0.00,,,0.00,VWS V14.01,2013-08-04 09:34:00,
2013-08-04 05:39:00,65.2,62.8,29.91,WNW,290,0.0,0.0,92,0.00,,,0.00,VWS V14.01,2013-08-04 09:39:00,
2013-08-04 05:44:00,65.1,62.7,29.91,WNW,290,0.0,0.0,92,0.00,,,0.00,VWS V14.01,2013-08-04 09:44:00,
2013-08-04 05:49:00,65.0,62.3,29.92,WNW,290,0.0,0.0,91,0.00,,,0.00,VWS V14.01,2013-08-04 09:49:00,
2013-08-04 05:54:00,65.0,62.3,29.92,WNW,290,0.0,0.0,91,0.00,,,0.00,VWS V14.01,2013-08-04 09:54:00,
2013-08-04 05:59:00,64.8,62.1,29.92,WNW,290,0.0,0.0,91,0.00,,,0.00,VWS V14.01,2013-08-04 09:59:00,
2013-08-04 06:04:00,64.7,62.0,29.92,WNW,290,0.0,0.0,91,0.00,,,0.00,VWS V14.01,2013-08-04 10:04:00,
2013-08-04 06:09:00,64.6,61.9,29.92,WNW,290,0.0,0.0,91,0.00,,,0.00,VWS V14.01,2013-08-04 10:09:00,
2013-08-04 06:14:00,64.6,61.9,29.92,WNW,290,0.0,0.0,91,0.00,,,0.00,VWS V14.01,2013-08-04 10:14:00,
2013-08-04 06:19:00,64.6,61.6,29.93,WNW,290,0.0,0.0,90,0.00,,,0.00,VWS V14.01,2013-08-04 10:19:00,
2013-08-04 06:24:00,64.6,61.6,29.93,WNW,290,0.0,0.0,90,0.00,,,0.00,VWS V14.01,2013-08-04 10:24:00,
2013-08-04 06:29:00,64.5,61.5,29.93,WNW,290,0.0,0.0,90,0.00,,,0.00,VWS V14.01,2013-08-04 10:29:00,
2013-08-04 06:35:00,64.4,61.4,29.93,WNW,290,0.0,0.0,90,0.00,,,0.00,VWS V14.01,2013-08-04 10:35:00,
2013-08-04 06:40:00,64.3,61.3,29.93,WNW,290,0.0,0.0,90,0.00,,,0.00,VWS V14.01,2013-08-04 10:40:00,
2013-08-04 06:44:00,64.2,61.2,29.94,WNW,290,0.0,0.0,90,0.00,,,0.00,VWS V14.01,2013-08-04 10:44:00,
2013-08-04 06:50:00,64.0,61.0,29.94,WNW,290,0.0,0.0,90,0.00,,,0.00,VWS V14.01,2013-08-04 10:50:00,
2013-08-04 06:55:00,63.9,60.9,29.94,WNW,290,0.0,0.0,90,0.00,,,0.00,VWS V14.01,2013-08-04 10:55:00,
2013-08-04 07:00:00,63.8,60.8,29.94,WNW,290,0.0,0.0,90,0.00,,,0.00,VWS V14.01,2013-08-04 11:00:00,
2013-08-04 07:05:00,63.7,60.7,29.94,WNW,290,0.0,0.0,90,0.00,,,0.00,VWS V14.01,2013-08-04 11:05:00,
2013-08-04 07:10:00,63.5,60.5,29.95,WNW,290,0.0,0.0,90,0.00,,,0.00,VWS V14.01,2013-08-04 11:10:00,
2013-08-04 07:15:00,63.4,60.4,29.95,WNW,290,0.0,0.0,90,0.00,,,0.00,VWS V14.01,2013-08-04 11:15:00,
2013-08-04 07:20:00,63.4,60.4,29.95,WNW,290,0.0,0.0,90,0.00,,,0.00,VWS V14.01,2013-08-04 11:20:00,
2013-08-04 07:25:00,63.4,60.4,29.96,WNW,290,0.0,0.0,90,0.00,,,0.00,VWS V14.01,2013-08-04 11:25:00,
2013-08-04 07:30:00,63.4,60.4,29.96,WNW,290,0.0,0.0,90,0.00,,,0.00,VWS V14.01,2013-08-04 11:30:00,
2013-08-04 07:35:00,63.4,60.4,29.96,WNW,290,0.0,0.0,90,0.00,,,0.00,VWS V14.01,2013-08-04 11:35:00,
2013-08-04 07:40:00,63.5,60.5,29.96,WNW,290,0.0,0.0,90,0.00,,,0.00,VWS V14.01,2013-08-04 11:40:00,
2013-08-04 07:45:00,63.6,60.6,29.96,WNW,290,0.0,0.0,90,0.00,,,0.00,VWS V14.01,2013-08-04 11:45:00,
2013-08-04 07:50:00,63.8,60.8,29.97,WNW,290,0.0,0.0,90,0.00,,,0.00,VWS V14.01,2013-08-04 11:50:00,
2013-08-04 07:55:00,64.0,60.7,29.97,WNW,290,0.0,1.0,89,0.00,,,0.00,VWS V14.01,2013-08-04 11:55:00,
2013-08-04 08:01:00,64.4,60.8,29.97,WNW,290,0.0,0.0,88,0.00,,,0.00,VWS V14.01,2013-08-04 12:01:00,
2013-08-04 08:05:00,64.8,60.8,29.97,WNW,290,0.0,0.0,87,0.00,,,0.00,VWS V14.01,2013-08-04 12:05:00,
2013-08-04 08:11:00,65.3,61.0,29.97,WNW,290,0.0,0.0,86,0.00,,,0.00,VWS V14.01,2013-08-04 12:11:00,
2013-08-04 08:16:00,65.7,61.1,29.97,WNW,290,1.0,2.0,85,0.00,,,0.00,VWS V14.01,2013-08-04 12:16:00,
2013-08-04 08:21:00,66.0,61.0,29.97,WNW,290,0.0,0.0,84,0.00,,,0.00,VWS V14.01,2013-08-04 12:21:00,
2013-08-04 08:26:00,66.1,60.8,29.97,WNW,290,0.0,2.0,83,0.00,,,0.00,VWS V14.01,2013-08-04 12:26:00,
2013-08-04 08:31:00,66.1,60.8,29.98,WNW,290,0.0,0.0,83,0.00,,,0.00,VWS V14.01,2013-08-04 12:31:00,
2013-08-04 08:36:00,66.1,61.1,29.97,WNW,290,0.0,1.0,84,0.00,,,0.00,VWS V14.01,2013-08-04 12:36:00,
2013-08-04 08:41:00,66.2,60.9,29.98,WNW,290,0.0,0.0,83,0.00,,,0.00,VWS V14.01,2013-08-04 12:41:00,
2013-08-04 08:46:00,66.5,61.2,29.98,WNW,290,0.0,0.0,83,0.00,,,0.00,VWS V14.01,2013-08-04 12:46:00,
2013-08-04 08:51:00,66.8,60.8,29.98,NW,305,0.0,0.0,81,0.00,,,0.00,VWS V14.01,2013-08-04 12:51:00,
2013-08-04 08:56:00,67.3,61.3,29.99,NW,304,0.0,1.0,81,0.00,,,0.00,VWS V14.01,2013-08-04 12:56:00,
2013-08-04 09:01:00,67.6,60.5,29.99,NNW,327,0.0,3.0,78,0.00,,,0.00,VWS V14.01,2013-08-04 13:01:00,
2013-08-04 09:06:00,67.9,61.2,29.99,NNW,329,0.0,3.0,79,0.00,,,0.00,VWS V14.01,2013-08-04 13:06:00,
2013-08-04 09:11:00,68.1,61.3,29.99,NNW,333,0.0,0.0,79,0.00,,,0.00,VWS V14.01,2013-08-04 13:11:00,
2013-08-04 09:16:00,68.5,61.4,29.99,NNW,336,0.0,2.0,78,0.00,,,0.00,VWS V14.01,2013-08-04 13:16:00,
2013-08-04 09:21:00,68.8,61.3,29.98,NNW,341,0.0,0.0,77,0.00,,,0.00,VWS V14.01,2013-08-04 13:21:00,
2013-08-04 09:26:00,69.0,61.1,29.99,North,355,3.0,5.0,76,0.00,,,0.00,VWS V14.01,2013-08-04 13:26:00,
2013-08-04 09:31:00,69.2,61.7,29.99,North,355,1.0,3.0,77,0.00,,,0.00,VWS V14.01,2013-08-04 13:31:00,
2013-08-04 09:36:00,69.6,61.3,29.98,North,355,0.0,0.0,75,0.00,,,0.00,VWS V14.01,2013-08-04 13:36:00,
2013-08-04 09:41:00,70.1,61.4,29.99,North,355,0.0,1.0,74,0.00,,,0.00,VWS V14.01,2013-08-04 13:41:00,
2013-08-04 09:46:00,70.4,61.3,29.99,North,360,0.0,1.0,73,0.00,,,0.00,VWS V14.01,2013-08-04 13:46:00,
2013-08-04 09:52:00,70.5,61.0,29.99,NNE,17,1.0,5.0,72,0.00,,,0.00,VWS V14.01,2013-08-04 13:52:00,
2013-08-04 09:57:00,70.3,60.1,29.99,NNE,29,3.0,6.0,70,0.00,,,0.00,VWS V14.01,2013-08-04 13:57:00,
2013-08-04 10:02:00,70.3,60.9,29.99,NNE,30,0.0,0.0,72,0.00,,,0.00,VWS V14.01,2013-08-04 14:02:00,
2013-08-04 10:07:00,70.6,61.1,29.98,NNE,26,1.0,2.0,72,0.00,,,0.00,VWS V14.01,2013-08-04 14:07:00,
2013-08-04 10:12:00,71.2,61.3,29.99,NE,39,3.0,4.0,71,0.00,,,0.00,VWS V14.01,2013-08-04 14:12:00,
2013-08-04 10:17:00,71.3,61.0,29.99,NNE,26,0.0,0.0,70,0.00,,,0.00,VWS V14.01,2013-08-04 14:17:00,
2013-08-04 10:22:00,71.5,61.2,29.99,NNE,26,0.0,0.0,70,0.00,,,0.00,VWS V14.01,2013-08-04 14:22:00,
2013-08-04 10:27:00,72.1,61.4,29.99,NNE,26,3.0,3.0,69,0.00,,,0.00,VWS V14.01,2013-08-04 14:27:00,
2013-08-04 10:32:00,72.5,60.5,29.99,NNE,22,0.0,1.0,66,0.00,,,0.00,VWS V14.01,2013-08-04 14:32:00,
2013-08-04 10:37:00,72.6,59.7,30.00,North,9,2.0,2.0,64,0.00,,,0.00,VWS V14.01,2013-08-04 14:37:00,
2013-08-04 10:42:00,72.8,60.4,29.99,North,11,0.0,0.0,65,0.00,,,0.00,VWS V14.01,2013-08-04 14:42:00,
2013-08-04 10:47:00,73.0,60.1,29.99,North,5,5.0,6.0,64,0.00,,,0.00,VWS V14.01,2013-08-04 14:47:00,
2013-08-04 10:52:00,73.0,60.1,29.99,North,360,0.0,2.0,64,0.00,,,0.00,VWS V14.01,2013-08-04 14:52:00,
2013-08-04 10:57:00,73.3,61.3,29.99,NNE,13,0.0,0.0,66,0.00,,,0.00,VWS V14.01,2013-08-04 14:57:00,
2013-08-04 11:02:00,73.9,61.0,29.99,NNE,13,1.0,1.0,64,0.00,,,0.00,VWS V14.01,2013-08-04 15:02:00,
2013-08-04 11:07:00,73.9,59.2,29.99,NNE,28,2.0,6.0,60,0.00,,,0.00,VWS V14.01,2013-08-04 15:07:00,
2013-08-04 11:12:00,73.5,58.8,29.99,North,5,0.0,0.0,60,0.00,,,0.00,VWS V14.01,2013-08-04 15:12:00,
2013-08-04 11:17:00,73.4,59.6,30.00,North,5,0.0,0.0,62,0.00,,,0.00,VWS V14.01,2013-08-04 15:17:00,
2013-08-04 11:22:00,73.7,60.8,29.99,North,360,2.0,2.0,64,0.00,,,0.00,VWS V14.01,2013-08-04 15:22:00,
2013-08-04 11:27:00,74.0,60.2,29.99,North,5,2.0,3.0,62,0.00,,,0.00,VWS V14.01,2013-08-04 15:27:00,
2013-08-04 11:32:00,74.3,60.5,29.99,North,11,3.0,6.0,62,0.00,,,0.00,VWS V14.01,2013-08-04 15:32:00,
2013-08-04 11:37:00,74.6,59.8,29.99,North,349,0.0,0.0,60,0.00,,,0.00,VWS V14.01,2013-08-04 15:37:00,
2013-08-04 11:42:00,75.1,59.8,29.99,NNE,12,3.0,4.0,59,0.00,,,0.00,VWS V14.01,2013-08-04 15:42:00,
2013-08-04 11:47:00,75.1,59.3,29.99,NNE,12,2.0,4.0,58,0.00,,,0.00,VWS V14.01,2013-08-04 15:47:00,
2013-08-04 11:53:00,75.1,58.8,29.99,NNE,15,0.0,1.0,57,0.00,,,0.00,VWS V14.01,2013-08-04 15:53:00,
2013-08-04 11:57:00,75.5,58.7,29.99,NNE,26,5.0,7.0,56,0.00,,,0.00,VWS V14.01,2013-08-04 15:57:00,
2013-08-04 12:03:00,75.7,58.9,29.99,NNE,26,0.0,1.0,56,0.00,,,0.00,VWS V14.01,2013-08-04 16:03:00,
2013-08-04 12:08:00,75.9,58.1,29.99,NNE,26,0.0,1.0,54,0.00,,,0.00,VWS V14.01,2013-08-04 16:08:00,
2013-08-04 12:13:00,76.3,60.5,29.99,NNE,26,0.0,1.0,58,0.00,,,0.00,VWS V14.01,2013-08-04 16:13:00,
2013-08-04 12:18:00,76.4,58.0,29.99,NNE,26,1.0,1.0,53,0.00,,,0.00,VWS V14.01,2013-08-04 16:18:00,
2013-08-04 12:23:00,76.6,58.7,29.99,NNE,25,0.0,3.0,54,0.00,,,0.00,VWS V14.01,2013-08-04 16:23:00,
2013-08-04 12:28:00,76.6,59.2,29.99,NNE,30,2.0,2.0,55,0.00,,,0.00,VWS V14.01,2013-08-04 16:28:00,
2013-08-04 12:33:00,76.7,59.8,29.99,NNE,30,1.0,1.0,56,0.00,,,0.00,VWS V14.01,2013-08-04 16:33:00,
2013-08-04 12:38:00,76.7,59.8,29.99,NNE,28,0.0,1.0,56,0.00,,,0.00,VWS V14.01,2013-08-04 16:38:00,
2013-08-04 12:43:00,76.7,59.8,29.98,NNE,17,1.0,1.0,56,0.00,,,0.00,VWS V14.01,2013-08-04 16:43:00,
2013-08-04 12:48:00,76.7,58.8,29.99,NNE,22,0.0,1.0,54,0.00,,,0.00,VWS V14.01,2013-08-04 16:48:00,
2013-08-04 12:53:00,76.7,60.3,29.98,North,5,2.0,2.0,57,0.00,,,0.00,VWS V14.01,2013-08-04 16:53:00,
2013-08-04 12:58:00,76.6,59.8,29.99,NNE,16,5.0,5.0,56,0.00,,,0.00,VWS V14.01,2013-08-04 16:58:00,
2013-08-04 13:03:00,76.4,59.1,29.99,NNE,15,0.0,1.0,55,0.00,,,0.00,VWS V14.01,2013-08-04 17:03:00,
2013-08-04 13:08:00,76.5,61.1,29.99,WNW,298,0.0,1.0,59,0.00,,,0.00,VWS V14.01,2013-08-04 17:08:00,
2013-08-04 13:13:00,77.2,60.3,29.99,WNW,298,0.0,3.0,56,0.00,,,0.00,VWS V14.01,2013-08-04 17:13:00,
2013-08-04 13:18:00,77.3,59.4,29.98,North,5,3.0,6.0,54,0.00,,,0.00,VWS V14.01,2013-08-04 17:18:00,
2013-08-04 13:23:00,76.8,60.4,29.99,NNE,14,1.0,1.0,57,0.00,,,0.00,VWS V14.01,2013-08-04 17:23:00,
2013-08-04 13:28:00,76.7,59.8,29.99,North,5,1.0,1.0,56,0.00,,,0.00,VWS V14.01,2013-08-04 17:28:00,
2013-08-04 13:34:00,76.5,59.2,29.99,North,360,2.0,4.0,55,0.00,,,0.00,VWS V14.01,2013-08-04 17:34:00,
2013-08-04 13:39:00,76.6,59.2,29.98,North,10,0.0,1.0,55,0.00,,,0.00,VWS V14.01,2013-08-04 17:39:00,
2013-08-04 13:44:00,76.9,59.0,29.98,NNE,15,2.0,4.0,54,0.00,,,0.00,VWS V14.01,2013-08-04 17:44:00,
2013-08-04 13:49:00,76.9,59.0,29.99,NNE,25,3.0,4.0,54,0.00,,,0.00,VWS V14.01,2013-08-04 17:49:00,
2013-08-04 13:53:00,76.9,59.5,29.98,NNE,13,1.0,1.0,55,0.00,,,0.00,VWS V14.01,2013-08-04 17:53:00,
2013-08-04 13:59:00,77.2,59.8,29.98,North,9,2.0,4.0,55,0.00,,,0.00,VWS V14.01,2013-08-04 17:59:00,
2013-08-04 14:04:00,77.1,60.7,29.97,North,360,0.0,1.0,57,0.00,,,0.00,VWS V14.01,2013-08-04 18:04:00,
2013-08-04 14:09:00,77.6,60.7,29.97,North,5,0.0,1.0,56,0.00,,,0.00,VWS V14.01,2013-08-04 18:09:00,
2013-08-04 14:14:00,77.8,59.8,29.98,NNE,13,4.0,4.0,54,0.00,,,0.00,VWS V14.01,2013-08-04 18:14:00,
2013-08-04 14:19:00,77.6,60.2,29.98,North,5,7.0,7.0,55,0.00,,,0.00,VWS V14.01,2013-08-04 18:19:00,
2013-08-04 14:24:00,77.5,60.1,29.97,NNE,19,2.0,2.0,55,0.00,,,0.00,VWS V14.01,2013-08-04 18:24:00,
2013-08-04 14:29:00,77.7,60.3,29.97,NNE,18,0.0,2.0,55,0.00,,,0.00,VWS V14.01,2013-08-04 18:29:00,
2013-08-04 14:34:00,78.0,60.5,29.98,NNW,342,3.0,4.0,55,0.00,,,0.00,VWS V14.01,2013-08-04 18:34:00,
2013-08-04 14:39:00,78.0,61.0,29.97,North,355,0.0,0.0,56,0.00,,,0.00,VWS V14.01,2013-08-04 18:39:00,
2013-08-04 14:44:00,78.0,59.5,29.97,North,355,0.0,2.0,53,0.00,,,0.00,VWS V14.01,2013-08-04 18:44:00,
2013-08-04 14:49:00,78.3,60.3,29.97,North,5,5.0,6.0,54,0.00,,,0.00,VWS V14.01,2013-08-04 18:49:00,
2013-08-04 14:54:00,78.1,59.1,29.98,NE,39,0.0,1.0,52,0.00,,,0.00,VWS V14.01,2013-08-04 18:54:00,
2013-08-04 14:59:00,78.4,60.4,29.98,NE,34,5.0,5.0,54,0.00,,,0.00,VWS V14.01,2013-08-04 18:59:00,
2013-08-04 15:04:00,78.3,59.2,29.98,NNE,22,0.0,1.0,52,0.00,,,0.00,VWS V14.01,2013-08-04 19:04:00,
2013-08-04 15:09:00,78.1,60.1,29.97,NE,37,7.0,7.0,54,0.00,,,0.00,VWS V14.01,2013-08-04 19:09:00,
2013-08-04 15:15:00,78.0,60.0,29.97,NE,37,1.0,2.0,54,0.00,,,0.00,VWS V14.01,2013-08-04 19:15:00,
2013-08-04 15:19:00,77.7,60.8,29.97,NE,37,0.0,3.0,56,0.00,,,0.00,VWS V14.01,2013-08-04 19:19:00,
2013-08-04 15:25:00,77.7,60.3,29.96,NE,38,10.0,10.0,55,0.00,,,0.00,VWS V14.01,2013-08-04 19:25:00,
2013-08-04 15:30:00,77.6,60.2,29.96,WNW,301,8.0,8.0,55,0.00,,,0.00,VWS V14.01,2013-08-04 19:30:00,
2013-08-04 15:35:00,77.6,60.7,29.96,NE,53,3.0,5.0,56,0.00,,,0.00,VWS V14.01,2013-08-04 19:35:00,
2013-08-04 15:40:00,77.9,59.9,29.96,NNE,26,7.0,7.0,54,0.00,,,0.00,VWS V14.01,2013-08-04 19:40:00,
2013-08-04 15:45:00,77.9,61.5,29.96,NE,40,0.0,2.0,57,0.00,,,0.00,VWS V14.01,2013-08-04 19:45:00,
2013-08-04 15:50:00,78.1,60.6,29.96,North,5,5.0,5.0,55,0.00,,,0.00,VWS V14.01,2013-08-04 19:50:00,
2013-08-04 15:55:00,78.2,60.7,29.96,North,360,3.0,5.0,55,0.00,,,0.00,VWS V14.01,2013-08-04 19:55:00,
2013-08-04 16:00:00,78.1,60.1,29.95,NNE,26,0.0,1.0,54,0.00,,,0.00,VWS V14.01,2013-08-04 20:00:00,
2013-08-04 16:05:00,78.4,61.4,29.95,North,350,0.0,1.0,56,0.00,,,0.00,VWS V14.01,2013-08-04 20:05:00,
2013-08-04 16:10:00,78.7,62.7,29.96,North,5,6.0,6.0,58,0.00,,,0.00,VWS V14.01,2013-08-04 20:10:00,
2013-08-04 16:15:00,79.0,60.4,29.96,North,360,4.0,6.0,53,0.00,,,0.00,VWS V14.01,2013-08-04 20:15:00,
2013-08-04 16:20:00,78.7,61.2,29.96,NNW,342,0.0,0.0,55,0.00,,,0.00,VWS V14.01,2013-08-04 20:20:00,
2013-08-04 16:26:00,78.7,61.2,29.95,NNE,26,4.0,7.0,55,0.00,,,0.00,VWS V14.01,2013-08-04 20:26:00,
2013-08-04 16:31:00,78.7,61.2,29.96,NNE,30,2.0,2.0,55,0.00,,,0.00,VWS V14.01,2013-08-04 20:31:00,
2013-08-04 16:36:00,78.7,61.2,29.95,North,355,3.0,3.0,55,0.00,,,0.00,VWS V14.01,2013-08-04 20:36:00,
2013-08-04 16:41:00,78.7,62.2,29.95,North,355,1.0,2.0,57,0.00,,,0.00,VWS V14.01,2013-08-04 20:41:00,
2013-08-04 16:45:00,78.7,61.7,29.95,NNE,21,1.0,4.0,56,0.00,,,0.00,VWS V14.01,2013-08-04 20:45:00,
2013-08-04 16:51:00,78.8,61.3,29.95,NNE,15,0.0,1.0,55,0.00,,,0.00,VWS V14.01,2013-08-04 20:51:00,
2013-08-04 16:56:00,78.9,62.4,29.95,NNE,15,1.0,2.0,57,0.00,,,0.00,VWS V14.01,2013-08-04 20:56:00,
2013-08-04 17:01:00,78.9,60.9,29.95,North,360,0.0,2.0,54,0.00,,,0.00,VWS V14.01,2013-08-04 21:01:00,
2013-08-04 17:06:00,78.8,61.8,29.95,North,5,1.0,4.0,56,0.00,,,0.00,VWS V14.01,2013-08-04 21:06:00,
2013-08-04 17:11:00,78.9,61.9,29.95,North,360,2.0,3.0,56,0.00,,,0.00,VWS V14.01,2013-08-04 21:11:00,
2013-08-04 17:16:00,78.7,61.2,29.95,North,5,3.0,5.0,55,0.00,,,0.00,VWS V14.01,2013-08-04 21:16:00,
2013-08-04 17:21:00,78.7,62.2,29.95,North,5,0.0,3.0,57,0.00,,,0.00,VWS V14.01,2013-08-04 21:21:00,
2013-08-04 17:26:00,78.5,61.5,29.95,North,9,2.0,3.0,56,0.00,,,0.00,VWS V14.01,2013-08-04 21:26:00,
2013-08-04 17:31:00,78.3,63.3,29.95,NNE,13,0.0,1.0,60,0.00,,,0.00,VWS V14.01,2013-08-04 21:31:00,
2013-08-04 17:36:00,78.2,61.7,29.95,North,11,4.0,5.0,57,0.00,,,0.00,VWS V14.01,2013-08-04 21:36:00,
2013-08-04 17:41:00,78.0,61.5,29.95,North,9,0.0,2.0,57,0.00,,,0.00,VWS V14.01,2013-08-04 21:41:00,
2013-08-04 17:46:00,78.1,62.1,29.96,North,9,0.0,1.0,58,0.00,,,0.00,VWS V14.01,2013-08-04 21:46:00,
2013-08-04 17:50:00,78.2,62.7,29.96,North,9,0.0,0.0,59,0.00,,,0.00,VWS V14.01,2013-08-04 21:50:00,
2013-08-04 17:55:00,77.9,61.5,29.96,NNE,22,0.0,1.0,57,0.00,,,0.00,VWS V14.01,2013-08-04 21:55:00,
2013-08-04 18:00:00,77.6,62.2,29.95,NNE,25,0.0,1.0,59,0.00,,,0.00,VWS V14.01,2013-08-04 22:00:00,
2013-08-04 18:05:00,77.6,62.2,29.95,NNE,25,2.0,2.0,59,0.00,,,0.00,VWS V14.01,2013-08-04 22:05:00,
2013-08-04 18:10:00,77.4,62.9,29.95,NNE,25,0.0,0.0,61,0.00,,,0.00,VWS V14.01,2013-08-04 22:10:00,
2013-08-04 18:15:00,77.1,61.7,29.96,NNE,20,0.0,0.0,59,0.00,,,0.00,VWS V14.01,2013-08-04 22:15:00,
2013-08-04 18:21:00,76.7,61.3,29.96,North,360,2.0,4.0,59,0.00,,,0.00,VWS V14.01,2013-08-04 22:21:00,
2013-08-04 18:26:00,76.3,61.4,29.96,North,350,4.0,9.0,60,0.00,,,0.00,VWS V14.01,2013-08-04 22:26:00,
2013-08-04 18:31:00,76.0,61.1,29.96,North,350,0.0,1.0,60,0.00,,,0.00,VWS V14.01,2013-08-04 22:31:00,
2013-08-04 18:35:00,75.8,61.4,29.95,NNE,19,0.0,1.0,61,0.00,,,0.00,VWS V14.01,2013-08-04 22:35:00,
2013-08-04 18:41:00,75.7,61.8,29.96,NNE,19,1.0,1.0,62,0.00,,,0.00,VWS V14.01,2013-08-04 22:41:00,
2013-08-04 18:46:00,75.5,62.0,29.95,NNE,19,3.0,3.0,63,0.00,,,0.00,VWS V14.01,2013-08-04 22:46:00,
2013-08-04 18:51:00,75.3,62.3,29.95,NNE,19,0.0,2.0,64,0.00,,,0.00,VWS V14.01,2013-08-04 22:51:00,
2013-08-04 18:56:00,75.2,62.6,29.95,NNE,19,0.0,1.0,65,0.00,,,0.00,VWS V14.01,2013-08-04 22:56:00,
2013-08-04 19:01:00,75.0,62.0,29.95,NNE,19,0.0,0.0,64,0.00,,,0.00,VWS V14.01,2013-08-04 23:01:00,
2013-08-04 19:06:00,74.9,61.9,29.95,NNE,19,0.0,0.0,64,0.00,,,0.00,VWS V14.01,2013-08-04 23:06:00,
2013-08-04 19:11:00,74.7,61.7,29.95,NNE,19,0.0,2.0,64,0.00,,,0.00,VWS V14.01,2013-08-04 23:11:00,
2013-08-04 19:16:00,74.6,62.1,29.95,NNE,18,1.0,2.0,65,0.00,,,0.00,VWS V14.01,2013-08-04 23:16:00,
2013-08-04 19:21:00,74.3,62.2,29.95,NNE,19,0.0,1.0,66,0.00,,,0.00,VWS V14.01,2013-08-04 23:21:00,
2013-08-04 19:26:00,74.1,62.0,29.95,NNE,19,1.0,1.0,66,0.00,,,0.00,VWS V14.01,2013-08-04 23:26:00,
2013-08-04 19:31:00,74.0,62.8,29.95,NNE,19,0.0,0.0,68,0.00,,,0.00,VWS V14.01,2013-08-04 23:31:00,
2013-08-04 19:36:00,73.9,61.8,29.95,NNE,19,1.0,1.0,66,0.00,,,0.00,VWS V14.01,2013-08-04 23:36:00,
2013-08-04 19:41:00,73.8,61.7,29.95,NNE,18,0.0,0.0,66,0.00,,,0.00,VWS V14.01,2013-08-04 23:41:00,
2013-08-04 19:46:00,73.6,61.5,29.95,NNE,19,0.0,0.0,66,0.00,,,0.00,VWS V14.01,2013-08-04 23:46:00,
2013-08-04 19:51:00,73.5,61.9,29.95,NNE,19,0.0,0.0,67,0.00,,,0.00,VWS V14.01,2013-08-04 23:51:00,
2013-08-04 19:57:00,73.3,62.1,29.95,NNE,19,0.0,0.0,68,0.00,,,0.00,VWS V14.01,2013-08-04 23:57:00,
2013-08-04 20:03:00,73.0,62.2,29.95,NNE,19,0.0,0.0,69,0.00,,,0.00,VWS V14.01,2013-08-05 00:03:00,
2013-08-04 20:08:00,72.8,62.0,29.95,NNE,19,0.0,0.0,69,0.00,,,0.00,VWS V14.01,2013-08-05 00:08:00,
2013-08-04 20:13:00,72.6,62.7,29.95,NNE,19,0.0,0.0,71,0.00,,,0.00,VWS V14.01,2013-08-05 00:13:00,
2013-08-04 20:18:00,72.4,62.5,29.95,NNE,19,0.0,0.0,71,0.00,,,0.00,VWS V14.01,2013-08-05 00:18:00,
2013-08-04 20:23:00,72.2,62.7,29.96,NNE,18,0.0,0.0,72,0.00,,,0.00,VWS V14.01,2013-08-05 00:23:00,
2013-08-04 20:28:00,72.0,62.1,29.95,NNE,19,0.0,0.0,71,0.00,,,0.00,VWS V14.01,2013-08-05 00:28:00,
2013-08-04 20:33:00,71.8,62.7,29.95,NNE,18,0.0,0.0,73,0.00,,,0.00,VWS V14.01,2013-08-05 00:33:00,
2013-08-04 20:38:00,71.6,62.5,29.95,NNE,19,0.0,0.0,73,0.00,,,0.00,VWS V14.01,2013-08-05 00:38:00,
2013-08-04 20:43:00,71.3,63.0,29.95,NNE,19,0.0,0.0,75,0.00,,,0.00,VWS V14.01,2013-08-05 00:43:00,
2013-08-04 20:48:00,71.0,62.7,29.95,NNE,18,0.0,0.0,75,0.00,,,0.00,VWS V14.01,2013-08-05 00:48:00,
2013-08-04 20:53:00,70.5,62.6,29.95,NNE,19,0.0,0.0,76,0.00,,,0.00,VWS V14.01,2013-08-05 00:53:00,
2013-08-04 20:58:00,70.2,62.3,29.95,NNE,19,0.0,0.0,76,0.00,,,0.00,VWS V14.01,2013-08-05 00:58:00,
2013-08-04 21:03:00,69.9,62.4,29.96,NNE,19,0.0,0.0,77,0.00,,,0.00,VWS V14.01,2013-08-05 01:03:00,
2013-08-04 21:08:00,69.6,62.1,29.96,NNE,19,0.0,0.0,77,0.00,,,0.00,VWS V14.01,2013-08-05 01:08:00,
2013-08-04 21:14:00,69.4,61.9,29.96,NNE,18,0.0,0.0,77,0.00,,,0.00,VWS V14.01,2013-08-05 01:14:00,
2013-08-04 21:19:00,69.1,62.0,29.96,NNE,19,0.0,0.0,78,0.00,,,0.00,VWS V14.01,2013-08-05 01:19:00,
2013-08-04 21:23:00,68.9,61.8,29.95,NNE,19,0.0,0.0,78,0.00,,,0.00,VWS V14.01,2013-08-05 01:23:00,
2013-08-04 21:29:00,68.7,61.6,29.95,NNE,19,0.0,0.0,78,0.00,,,0.00,VWS V14.01,2013-08-05 01:29:00,
2013-08-04 21:34:00,68.5,61.7,29.95,NNE,19,0.0,0.0,79,0.00,,,0.00,VWS V14.01,2013-08-05 01:34:00,
2013-08-04 21:39:00,68.3,61.2,29.95,NNE,19,0.0,0.0,78,0.00,,,0.00,VWS V14.01,2013-08-05 01:39:00,
2013-08-04 21:44:00,68.2,61.1,29.96,NNE,18,0.0,0.0,78,0.00,,,0.00,VWS V14.01,2013-08-05 01:44:00,
2013-08-04 21:49:00,68.2,61.5,29.96,NNE,19,0.0,0.0,79,0.00,,,0.00,VWS V14.01,2013-08-05 01:49:00,
2013-08-04 21:54:00,68.1,61.3,29.96,NNE,18,0.0,0.0,79,0.00,,,0.00,VWS V14.01,2013-08-05 01:54:00,
2013-08-04 21:59:00,68.1,61.3,29.97,NNE,19,0.0,0.0,79,0.00,,,0.00,VWS V14.01,2013-08-05 01:59:00,
2013-08-04 22:04:00,68.0,61.2,29.97,NNE,19,0.0,0.0,79,0.00,,,0.00,VWS V14.01,2013-08-05 02:04:00,
2013-08-04 22:09:00,68.0,61.6,29.96,NNE,19,0.0,0.0,80,0.00,,,0.00,VWS V14.01,2013-08-05 02:09:00,
2013-08-04 22:14:00,67.9,61.2,29.97,NNE,19,0.0,0.0,79,0.00,,,0.00,VWS V14.01,2013-08-05 02:14:00,
2013-08-04 22:19:00,68.0,61.6,29.97,NNE,19,0.0,1.0,80,0.00,,,0.00,VWS V14.01,2013-08-05 02:19:00,
2013-08-04 22:24:00,68.1,61.7,29.97,NNE,19,0.0,0.0,80,0.00,,,0.00,VWS V14.01,2013-08-05 02:24:00,
2013-08-04 22:29:00,68.1,61.7,29.97,NNE,19,0.0,0.0,80,0.00,,,0.00,VWS V14.01,2013-08-05 02:29:00,
2013-08-04 22:34:00,68.0,61.6,29.97,NNE,19,0.0,0.0,80,0.00,,,0.00,VWS V14.01,2013-08-05 02:34:00,
2013-08-04 22:39:00,67.9,61.5,29.98,NNE,19,0.0,0.0,80,0.00,,,0.00,VWS V14.01,2013-08-05 02:39:00,
2013-08-04 22:44:00,67.8,61.4,29.97,NNE,18,0.0,0.0,80,0.00,,,0.00,VWS V14.01,2013-08-05 02:44:00,
2013-08-04 22:50:00,67.7,61.7,29.97,NNE,19,0.0,0.0,81,0.00,,,0.00,VWS V14.01,2013-08-05 02:50:00,
2013-08-04 22:55:00,67.5,62.2,29.97,NNE,18,0.0,0.0,83,0.00,,,0.00,VWS V14.01,2013-08-05 02:55:00,
2013-08-04 22:59:00,67.3,62.0,29.98,NNE,19,0.0,0.0,83,0.00,,,0.00,VWS V14.01,2013-08-05 02:59:00,
2013-08-04 23:05:00,67.0,62.0,29.98,NNE,18,0.0,0.0,84,0.00,,,0.00,VWS V14.01,2013-08-05 03:05:00,
2013-08-04 23:10:00,66.7,62.0,29.98,NNE,19,0.0,0.0,85,0.00,,,0.00,VWS V14.01,2013-08-05 03:10:00,
2013-08-04 23:15:00,66.4,61.8,29.99,NNE,19,0.0,0.0,85,0.00,,,0.00,VWS V14.01,2013-08-05 03:15:00,
2013-08-04 23:20:00,66.1,61.8,29.99,NNE,19,0.0,0.0,86,0.00,,,0.00,VWS V14.01,2013-08-05 03:20:00,
2013-08-04 23:25:00,65.9,61.6,29.99,NNE,18,0.0,0.0,86,0.00,,,0.00,VWS V14.01,2013-08-05 03:25:00,
2013-08-04 23:30:00,65.7,61.7,29.99,NNE,19,0.0,0.0,87,0.00,,,0.00,VWS V14.01,2013-08-05 03:30:00,
2013-08-04 23:35:00,65.5,61.5,29.99,NNE,18,0.0,0.0,87,0.00,,,0.00,VWS V14.01,2013-08-05 03:35:00,
2013-08-04 23:40:00,65.2,61.6,29.99,NNE,19,0.0,0.0,88,0.00,,,0.00,VWS V14.01,2013-08-05 03:40:00,
2013-08-04 23:45:00,65.0,61.4,29.99,NNE,19,0.0,0.0,88,0.00,,,0.00,VWS V14.01,2013-08-05 03:45:00,
2013-08-04 23:50:00,64.8,61.2,29.99,NNE,18,0.0,0.0,88,0.00,,,0.00,VWS V14.01,2013-08-05 03:50:00,
2013-08-04 23:55:00,64.6,61.3,29.99,NNE,19,0.0,0.0,89,0.00,,,0.00,VWS V14.01,2013-08-05 03:55:00,